Time;durP1;ratioP1;P1;durP2;ratioP2;P2;SDS_P1;SDS_P2;PMS_P1;PMS_P2;Temp;Humidity;BMP_temperature;BMP_pressure;BME280_temperature;BME280_humidity;BME280_pressure;Samples;Min_cycle;Max_cycle;Signal;HPM_P1;HPM_P2
2022/11/15 00:00:58;;;;;;;;;;;;;;;6.03;85.48;100949.92;116128;1296;25920;-69
2022/11/15 00:03:45;;;;;;;;;;;;;;;6.04;85.60;100949.91;116189;1284;22453;-69
2022/11/15 00:06:33;;;;;;;;;;;;;;;6.02;85.69;100951.51;116135;1294;22477;-70
2022/11/15 00:09:32;;;;;;;;;;;;;;;6.01;85.86;100938.16;116159;1306;22434;-70
2022/11/15 00:12:20;;;;;;;;;;;;;;;6.00;85.90;100935.75;116252;1299;22438;-70
2022/11/15 00:15:10;;;;;;;;;;;;;;;5.98;85.85;100930.59;116227;1277;22443;-69
2022/11/15 00:17:57;;;;;;;;;;;;;;;5.93;85.82;100925.77;116195;1306;22530;-67
2022/11/15 00:20:47;;;;;;;;;;;;;;;5.90;86.03;100924.91;116146;1285;25191;-70
2022/11/15 00:23:35;;;;;;;;;;;;;;;5.89;86.37;100923.18;116158;1287;22541;-67
2022/11/15 00:26:24;;;;;;;;;;;;;;;5.87;86.16;100919.42;116112;1284;22429;-69
2022/11/15 00:29:12;;;;;;;;;;;;;;;5.84;86.28;100911.30;116141;1306;22534;-68
2022/11/15 00:31:59;;;;;;;;;;;;;;;5.81;86.33;100906.81;116100;1306;22455;-68
2022/11/15 00:34:47;;;;;;;;;;;;;;;5.83;86.51;100903.69;116124;1292;22511;-69
2022/11/15 00:37:36;;;;;;;;;;;;;;;5.87;86.77;100898.45;116172;1294;22444;-69
2022/11/15 00:40:23;;;;;;;;;;;;;;;5.92;86.68;100895.83;116187;1284;22449;-69
2022/11/15 00:43:12;;;;;;;;;;;;;;;5.99;86.76;100887.10;116158;1306;22487;-69
2022/11/15 00:46:05;;;;;;;;;;;;;;;6.01;86.62;100884.83;116158;1306;22407;-68
2022/11/15 00:48:54;;;;;;;;;;;;;;;6.06;86.96;100879.40;116194;1306;22556;-68
2022/11/15 00:51:42;;;;;;;;;;;;;;;6.07;86.40;100871.77;116214;1297;22453;-67
2022/11/15 00:54:32;;;;;;;;;;;;;;;6.05;86.75;100874.38;116179;1306;22459;-68
2022/11/15 00:57:20;;;;;;;;;;;;;;;6.00;86.63;100868.55;116138;1299;22621;-67
2022/11/15 01:00:10;;;;;;;;;;;;;;;5.98;86.46;100868.77;116164;1296;22430;-69
2022/11/15 01:02:58;;;;;;;;;;;;;;;5.98;86.55;100862.88;116119;1306;22450;-70
2022/11/15 01:05:48;;;;;;;;;;;;;;;6.02;86.64;100854.34;116111;1287;22554;-70
2022/11/15 01:08:37;;;;;;;;;;;;;;;6.06;86.65;100847.53;116150;1306;24276;-69
2022/11/15 01:11:24;;;;;;;;;;;;;;;6.10;86.86;100849.55;116121;1295;22441;-67
2022/11/15 01:14:14;;;;;;;;;;;;;;;6.14;86.83;100844.83;116161;1280;22457;-69
2022/11/15 01:17:02;;;;;;;;;;;;;;;6.11;86.58;100840.20;116111;1288;22445;-67
2022/11/15 01:19:54;;;;;;;;;;;;;;;6.07;86.70;100833.32;116163;1305;24214;-69
2022/11/15 01:22:44;;;;;;;;;;;;;;;6.03;86.74;100828.19;116093;1305;24272;-68
2022/11/15 01:25:37;;;;;;;;;;;;;;;5.98;86.59;100831.86;116147;1296;22409;-69
2022/11/15 01:28:24;;;;;;;;;;;;;;;5.93;86.72;100834.86;116179;1298;25193;-69
2022/11/15 01:31:13;;;;;;;;;;;;;;;5.90;86.79;100828.11;116153;1306;22445;-69
2022/11/15 01:34:05;;;;;;;;;;;;;;;5.86;87.12;100822.27;116173;1306;22592;-67
2022/11/15 01:36:56;;;;;;;;;;;;;;;5.84;87.13;100826.63;116165;1284;22444;-69
2022/11/15 01:39:45;;;;;;;;;;;;;;;5.82;87.13;100825.27;116155;1306;22455;-70
2022/11/15 01:42:33;;;;;;;;;;;;;;;5.83;87.39;100828.89;116144;1298;24404;-69
2022/11/15 01:45:20;;;;;;;;;;;;;;;5.86;87.48;100819.67;116159;1287;22474;-69
2022/11/15 01:48:11;;;;;;;;;;;;;;;5.92;87.60;100818.95;116133;1287;22488;-69
2022/11/15 01:51:04;;;;;;;;;;;;;;;5.98;87.69;100818.01;116140;1287;25233;-67
2022/11/15 01:53:56;;;;;;;;;;;;;;;6.02;87.56;100806.38;116114;1306;22441;-69
2022/11/15 01:56:46;;;;;;;;;;;;;;;6.02;87.34;100801.70;116154;1306;22458;-69
2022/11/15 01:59:37;;;;;;;;;;;;;;;6.00;87.31;100801.19;116135;1295;22587;-68
2022/11/15 02:02:24;;;;;;;;;;;;;;;5.95;87.43;100791.90;116138;1306;22436;-69
2022/11/15 02:05:12;;;;;;;;;;;;;;;5.91;87.44;100791.93;116157;1305;22399;-69
2022/11/15 02:08:00;;;;;;;;;;;;;;;5.90;87.57;100790.55;116127;1293;22503;-69
2022/11/15 02:10:51;;;;;;;;;;;;;;;5.89;87.50;100787.95;116141;1299;22530;-70
2022/11/15 02:13:40;;;;;;;;;;;;;;;5.89;87.38;100785.54;116169;1287;25860;-68
2022/11/15 02:16:31;;;;;;;;;;;;;;;5.92;87.51;100784.14;116134;1296;25365;-67
2022/11/15 02:19:30;;;;;;;;;;;;;;;5.98;87.70;100776.48;116142;1300;23785;-70
2022/11/15 02:22:22;;;;;;;;;;;;;;;6.01;87.79;100770.02;116172;1288;22719;-70
2022/11/15 02:25:20;;;;;;;;;;;;;;;6.03;87.77;100771.19;116231;1284;24749;-69
2022/11/15 02:28:25;;;;;;;;;;;;;;;6.03;87.62;100768.07;116171;1304;22465;-68
2022/11/15 02:31:17;;;;;;;;;;;;;;;5.98;87.64;100765.20;116121;1300;25355;-69
2022/11/15 02:34:09;;;;;;;;;;;;;;;5.93;87.76;100759.03;116170;1306;24245;-69
2022/11/15 02:37:01;;;;;;;;;;;;;;;5.93;87.67;100759.20;116111;1306;22577;-68
2022/11/15 02:39:50;;;;;;;;;;;;;;;5.96;87.65;100758.82;116145;1277;22445;-70
2022/11/15 02:45:50;;;;;;;;;;;;;;;6.03;87.87;100749.38;116125;1287;22901;-68
2022/11/15 02:48:43;;;;;;;;;;;;;;;6.05;87.90;100747.95;116162;1287;22503;-69
2022/11/15 02:51:30;;;;;;;;;;;;;;;6.04;87.91;100749.02;116132;1299;22484;-67
2022/11/15 02:54:23;;;;;;;;;;;;;;;6.04;87.89;100741.56;116170;1306;22534;-68
2022/11/15 02:57:13;;;;;;;;;;;;;;;6.02;87.77;100739.16;116158;1303;22457;-69
2022/11/15 03:00:05;;;;;;;;;;;;;;;5.96;87.80;100739.25;116227;1291;22451;-69
2022/11/15 03:03:12;;;;;;;;;;;;;;;5.92;87.54;100724.91;116169;1305;24399;-69
2022/11/15 03:06:08;;;;;;;;;;;;;;;5.86;87.59;100725.15;116124;1300;24212;-69
2022/11/15 03:09:06;;;;;;;;;;;;;;;5.80;87.95;100724.70;116160;1284;22515;-68
2022/11/15 03:11:58;;;;;;;;;;;;;;;5.77;88.08;100723.02;116165;1305;22454;-67
2022/11/15 03:14:48;;;;;;;;;;;;;;;5.75;88.34;100720.95;116144;1306;23407;-70
2022/11/15 03:17:37;;;;;;;;;;;;;;;5.72;88.21;100722.22;116128;1287;22455;-69
2022/11/15 03:20:24;;;;;;;;;;;;;;;5.71;88.17;100718.58;116143;1297;22506;-69
2022/11/15 03:23:16;;;;;;;;;;;;;;;5.76;88.45;100719.73;116154;1284;22488;-69
2022/11/15 03:26:03;;;;;;;;;;;;;;;5.82;88.39;100707.39;116150;1287;22509;-68
2022/11/15 03:28:51;;;;;;;;;;;;;;;5.85;88.57;100704.38;116147;1284;25358;-69
2022/11/15 03:31:48;;;;;;;;;;;;;;;5.90;88.43;100698.95;116163;1284;22452;-68
2022/11/15 03:34:38;;;;;;;;;;;;;;;5.91;88.36;100689.42;116189;1297;22488;-68
2022/11/15 03:37:34;;;;;;;;;;;;;;;5.88;88.19;100690.66;116149;1306;22395;-68
2022/11/15 03:40:25;;;;;;;;;;;;;;;5.83;88.21;100693.69;116232;1287;25442;-68
2022/11/15 03:43:21;;;;;;;;;;;;;;;5.78;88.48;100684.40;116174;1286;23417;-69
2022/11/15 03:46:17;;;;;;;;;;;;;;;5.75;88.47;100679.77;116198;1300;22481;-67
2022/11/15 03:49:14;;;;;;;;;;;;;;;5.69;88.31;100679.14;116150;1287;24298;-67
2022/11/15 03:52:07;;;;;;;;;;;;;;;5.66;88.29;100676.08;116139;1291;22612;-69
2022/11/15 03:54:59;;;;;;;;;;;;;;;5.68;88.27;100667.75;116146;1306;22406;-68
2022/11/15 03:57:46;;;;;;;;;;;;;;;5.73;88.54;100668.89;116127;1287;25270;-69
2022/11/15 04:00:36;;;;;;;;;;;;;;;5.80;88.79;100663.23;116162;1294;22436;-69
2022/11/15 04:03:26;;;;;;;;;;;;;;;5.83;88.86;100660.08;116143;1284;22413;-69
2022/11/15 04:06:19;;;;;;;;;;;;;;;5.83;88.52;100656.45;116129;1297;25364;-68
2022/11/15 04:09:07;;;;;;;;;;;;;;;5.82;88.51;100657.69;115804;1306;477677;-68
2022/11/15 04:11:59;;;;;;;;;;;;;;;5.77;88.50;100655.66;116127;1306;22519;-67
2022/11/15 04:15:06;;;;;;;;;;;;;;;5.73;88.40;100654.35;116168;1306;22481;-69
2022/11/15 04:17:58;;;;;;;;;;;;;;;5.74;88.55;100651.39;116115;1306;24268;-70
2022/11/15 04:26:55;;;;;;;;;;;;;;;5.87;88.81;100645.66;116174;1305;22445;-68
2022/11/15 04:29:44;;;;;;;;;;;;;;;5.89;88.84;100647.19;116186;1306;22747;-69
2022/11/15 04:32:34;;;;;;;;;;;;;;;5.86;88.62;100643.08;116194;1285;22468;-68
2022/11/15 04:35:24;;;;;;;;;;;;;;;5.83;88.57;100641.39;116182;1306;22374;-69
2022/11/15 04:38:14;;;;;;;;;;;;;;;5.77;88.65;100636.63;116178;1306;22411;-69
2022/11/15 04:41:04;;;;;;;;;;;;;;;5.69;88.53;100644.52;116140;1306;22447;-69
2022/11/15 04:43:56;;;;;;;;;;;;;;;5.65;88.77;100646.48;116153;1300;22447;-68
2022/11/15 04:46:45;;;;;;;;;;;;;;;5.64;89.02;100641.49;116146;1299;22394;-66
2022/11/15 04:49:35;;;;;;;;;;;;;;;5.61;89.17;100641.52;116118;1306;22455;-67
2022/11/15 04:52:24;;;;;;;;;;;;;;;5.57;89.25;100637.24;116146;1306;22534;-68
2022/11/15 04:55:14;;;;;;;;;;;;;;;5.56;89.35;100636.74;116157;1279;25353;-66
2022/11/15 04:58:06;;;;;;;;;;;;;;;5.53;89.29;100634.03;116135;1305;22550;-68
2022/11/15 05:00:53;;;;;;;;;;;;;;;5.51;89.43;100631.79;116151;1306;22458;-68
2022/11/15 05:06:49;;;;;;;;;;;;;;;5.58;89.42;100626.68;116146;1287;24367;-68
2022/11/15 05:09:38;;;;;;;;;;;;;;;5.66;89.72;100620.34;116204;1301;22447;-69
2022/11/15 05:12:26;;;;;;;;;;;;;;;5.74;89.81;100624.21;116156;1287;22413;-70
2022/11/15 05:15:22;;;;;;;;;;;;;;;5.79;89.97;100621.20;116167;1302;25206;-69
2022/11/15 05:18:14;;;;;;;;;;;;;;;5.83;89.73;100619.23;116181;1287;24243;-69
2022/11/15 05:21:06;;;;;;;;;;;;;;;5.80;89.65;100618.05;116143;1287;22450;-69
2022/11/15 05:23:55;;;;;;;;;;;;;;;5.79;89.47;100617.39;116179;1287;22519;-67
2022/11/15 05:26:45;;;;;;;;;;;;;;;5.76;89.69;100612.58;116155;1305;24298;-68
2022/11/15 05:29:38;;;;;;;;;;;;;;;5.73;89.52;100615.05;116148;1301;22743;-68
2022/11/15 05:32:25;;;;;;;;;;;;;;;5.66;89.34;100617.39;116102;1306;22562;-68
2022/11/15 05:35:18;;;;;;;;;;;;;;;5.61;89.63;100613.84;116160;1305;22457;-69
2022/11/15 05:38:09;;;;;;;;;;;;;;;5.57;89.38;100612.85;116139;1301;24085;-69
2022/11/15 05:41:02;;;;;;;;;;;;;;;5.56;89.51;100621.33;116138;1287;25358;-70
2022/11/15 05:43:49;;;;;;;;;;;;;;;5.58;89.84;100610.92;116214;1287;25384;-67
2022/11/15 05:46:37;;;;;;;;;;;;;;;5.61;89.99;100606.55;116164;1306;22569;-69
2022/11/15 05:49:25;;;;;;;;;;;;;;;5.61;89.57;100602.23;116207;1287;22462;-68
2022/11/15 05:52:15;;;;;;;;;;;;;;;5.63;89.90;100602.21;116152;1280;22442;-68
2022/11/15 05:55:04;;;;;;;;;;;;;;;5.66;90.10;100603.71;116166;1306;22395;-69
2022/11/15 05:57:54;;;;;;;;;;;;;;;5.69;90.13;100598.30;116194;1298;22518;-69
2022/11/15 06:00:46;;;;;;;;;;;;;;;5.71;89.95;100593.43;116123;1306;22450;-69
2022/11/15 06:03:36;;;;;;;;;;;;;;;5.70;90.05;100596.91;116162;1290;22483;-70
2022/11/15 06:06:29;;;;;;;;;;;;;;;5.68;90.01;100599.52;116117;1284;22464;-71
2022/11/15 06:09:17;;;;;;;;;;;;;;;5.68;89.82;100605.60;116191;1292;22734;-68
2022/11/15 06:12:08;;;;;;;;;;;;;;;5.67;89.92;100606.66;116134;1284;22460;-69
2022/11/15 06:14:58;;;;;;;;;;;;;;;5.67;89.60;100605.27;116154;1306;23297;-69
2022/11/15 06:17:46;;;;;;;;;;;;;;;5.69;90.02;100606.45;116172;1287;22580;-69
2022/11/15 06:20:36;;;;;;;;;;;;;;;5.73;89.94;100611.26;116186;1286;22492;-69
2022/11/15 06:23:26;;;;;;;;;;;;;;;5.74;89.73;100609.50;116177;1281;22430;-69
2022/11/15 06:26:14;;;;;;;;;;;;;;;5.73;89.61;100603.80;116174;1285;22485;-69
2022/11/15 06:29:01;;;;;;;;;;;;;;;5.71;90.05;100606.25;116196;1306;22451;-68
2022/11/15 06:31:51;;;;;;;;;;;;;;;5.71;89.65;100610.73;116156;1306;24341;-68
2022/11/15 06:34:40;;;;;;;;;;;;;;;5.67;89.79;100611.16;116185;1278;22447;-69
2022/11/15 06:37:31;;;;;;;;;;;;;;;5.64;89.82;100610.67;116161;1287;22475;-69
2022/11/15 06:40:20;;;;;;;;;;;;;;;5.63;89.73;100608.95;116174;1287;22456;-69
2022/11/15 06:43:14;;;;;;;;;;;;;;;5.64;89.72;100610.84;116161;1294;22613;-69
2022/11/15 06:46:02;;;;;;;;;;;;;;;5.68;89.45;100616.68;116176;1285;22443;-69
2022/11/15 06:48:53;;;;;;;;;;;;;;;5.73;89.99;100611.23;116126;1290;23776;-69
2022/11/15 06:51:41;;;;;;;;;;;;;;;5.77;89.78;100617.92;116067;1306;22429;-70
2022/11/15 06:54:31;;;;;;;;;;;;;;;5.80;89.64;100619.45;116160;1277;22441;-68
2022/11/15 06:57:19;;;;;;;;;;;;;;;5.77;89.12;100621.40;116211;1306;22443;-68
2022/11/15 07:00:14;;;;;;;;;;;;;;;5.72;89.05;100623.54;116190;1300;22396;-68
2022/11/15 07:03:08;;;;;;;;;;;;;;;5.65;88.86;100623.98;116206;1297;22669;-68
2022/11/15 07:05:56;;;;;;;;;;;;;;;5.59;88.92;100626.65;116164;1306;22449;-69
2022/11/15 07:08:49;;;;;;;;;;;;;;;5.55;89.26;100625.84;116174;1287;23733;-70
2022/11/15 07:11:37;;;;;;;;;;;;;;;5.52;88.84;100630.58;116194;1288;22457;-70
2022/11/15 07:14:24;;;;;;;;;;;;;;;5.44;89.01;100633.61;116176;1287;22435;-69
2022/11/15 07:17:11;;;;;;;;;;;;;;;5.38;89.16;100629.54;116169;1287;23283;-70
2022/11/15 07:20:01;;;;;;;;;;;;;;;5.34;89.48;100632.02;116187;1303;22517;-68
2022/11/15 07:22:48;;;;;;;;;;;;;;;5.31;89.67;100629.61;116115;1306;22422;-68
2022/11/15 07:25:35;;;;;;;;;;;;;;;5.28;89.53;100630.53;116159;1297;22544;-69
2022/11/15 07:28:25;;;;;;;;;;;;;;;5.27;89.69;100628.97;116223;1306;22438;-69
2022/11/15 07:31:15;;;;;;;;;;;;;;;5.26;89.60;100624.30;116163;1284;22462;-68
2022/11/15 07:34:04;;;;;;;;;;;;;;;5.29;89.63;100621.70;116182;1279;22443;-69
2022/11/15 07:36:51;;;;;;;;;;;;;;;5.35;89.79;100621.27;116169;1298;22547;-70
2022/11/15 07:39:42;;;;;;;;;;;;;;;5.44;90.30;100617.34;116159;1287;22450;-69
2022/11/15 07:45:43;;;;;;;;;;;;;;;5.57;90.13;100612.84;116148;1306;22463;-70
2022/11/15 07:48:32;;;;;;;;;;;;;;;5.63;90.04;100609.98;116207;1284;22548;-68
2022/11/15 07:51:19;;;;;;;;;;;;;;;5.65;89.80;100606.67;116187;1287;22482;-68
2022/11/15 07:54:09;;;;;;;;;;;;;;;5.65;89.65;100602.69;116274;1305;22455;-69
2022/11/15 07:56:58;;;;;;;;;;;;;;;5.62;89.27;100601.69;116202;1306;22520;-70
2022/11/15 07:59:51;;;;;;;;;;;;;;;5.59;89.56;100599.48;116242;1306;22486;-68
2022/11/15 08:02:38;;;;;;;;;;;;;;;5.58;89.47;100595.88;116224;1294;25830;-69
2022/11/15 08:05:27;;;;;;;;;;;;;;;5.57;89.35;100589.66;116208;1306;24265;-69
2022/11/15 08:08:19;;;;;;;;;;;;;;;5.57;89.30;100590.70;116204;1287;23268;-68
2022/11/15 08:11:07;;;;;;;;;;;;;;;5.58;89.19;100586.86;116162;1306;22391;-68
2022/11/15 08:13:57;;;;;;;;;;;;;;;5.63;89.37;100587.85;116149;1305;23742;-68
2022/11/15 08:16:47;;;;;;;;;;;;;;;5.66;89.21;100588.14;116103;1306;22442;-69
2022/11/15 08:19:34;;;;;;;;;;;;;;;5.72;89.08;100578.02;116177;1283;25391;-70
2022/11/15 08:22:23;;;;;;;;;;;;;;;5.78;89.52;100568.75;116131;1305;24369;-68
2022/11/15 08:25:14;;;;;;;;;;;;;;;5.85;89.56;100568.30;116141;1288;22456;-67
2022/11/15 08:28:17;;;;;;;;;;;;;;;5.86;89.21;100566.05;116136;1290;22469;-69
2022/11/15 08:31:08;;;;;;;;;;;;;;;5.90;89.41;100559.92;116160;1306;22442;-69
2022/11/15 08:34:02;;;;;;;;;;;;;;;5.92;89.20;100563.73;116187;1287;22473;-70
2022/11/15 08:36:51;;;;;;;;;;;;;;;5.93;89.01;100569.25;116154;1305;24220;-69
2022/11/15 08:39:41;;;;;;;;;;;;;;;5.94;88.95;100568.88;116184;1294;22566;-67
2022/11/15 08:42:29;;;;;;;;;;;;;;;5.96;88.84;100559.52;116128;1300;22461;-68
2022/11/15 08:45:20;;;;;;;;;;;;;;;5.98;88.56;100556.89;116149;1300;22451;-70
2022/11/15 08:48:09;;;;;;;;;;;;;;;6.04;88.86;100558.69;116157;1306;22739;-69
2022/11/15 08:50:57;;;;;;;;;;;;;;;6.11;88.69;100557.01;116122;1278;22532;-69
2022/11/15 08:53:46;;;;;;;;;;;;;;;6.16;88.58;100557.80;116158;1306;22439;-67
2022/11/15 08:56:37;;;;;;;;;;;;;;;6.17;88.36;100560.73;116102;1306;22398;-68
2022/11/15 08:59:24;;;;;;;;;;;;;;;6.16;88.09;100553.45;116171;1285;25236;-69
2022/11/15 09:02:17;;;;;;;;;;;;;;;6.13;88.24;100554.90;116153;1295;22441;-69
2022/11/15 09:05:09;;;;;;;;;;;;;;;6.12;88.31;100551.98;116202;1306;22417;-69
2022/11/15 09:07:58;;;;;;;;;;;;;;;6.10;88.33;100550.43;116209;1285;22402;-69
2022/11/15 09:10:47;;;;;;;;;;;;;;;6.09;88.14;100548.72;116169;1285;22445;-69
2022/11/15 09:13:40;;;;;;;;;;;;;;;6.07;88.08;100542.00;116182;1278;25398;-69
2022/11/15 09:16:31;;;;;;;;;;;;;;;6.07;88.27;100539.07;116159;1300;22499;-70
2022/11/15 09:19:19;;;;;;;;;;;;;;;6.07;88.27;100535.78;116160;1306;22463;-68
2022/11/15 09:22:08;;;;;;;;;;;;;;;6.05;88.20;100532.33;116142;1287;22450;-67
2022/11/15 09:24:56;;;;;;;;;;;;;;;6.04;88.29;100526.30;116154;1285;22458;-70
2022/11/15 09:27:44;;;;;;;;;;;;;;;6.05;88.28;100522.83;116148;1294;22514;-68
2022/11/15 09:30:31;;;;;;;;;;;;;;;6.02;88.19;100524.77;116156;1287;22527;-69
2022/11/15 09:33:21;;;;;;;;;;;;;;;6.01;88.27;100521.84;116151;1306;22451;-68
2022/11/15 09:36:11;;;;;;;;;;;;;;;6.08;88.57;100519.64;116121;1303;24232;-67
2022/11/15 09:39:00;;;;;;;;;;;;;;;6.16;88.27;100518.63;116194;1305;22472;-69
2022/11/15 09:41:59;;;;;;;;;;;;;;;6.23;88.29;100512.46;116164;1285;22505;-69
2022/11/15 09:45:08;;;;;;;;;;;;;;;6.32;88.37;100509.52;116138;1300;24295;-68
2022/11/15 09:48:21;;;;;;;;;;;;;;;6.40;88.02;100506.60;116143;1305;22453;-70
2022/11/15 09:51:13;;;;;;;;;;;;;;;6.41;88.11;100500.51;116135;1306;23732;-70
2022/11/15 09:54:11;;;;;;;;;;;;;;;6.45;87.99;100499.74;116153;1306;22527;-69
2022/11/15 09:57:05;;;;;;;;;;;;;;;6.45;87.78;100500.61;116120;1306;24291;-67
2022/11/15 10:00:13;;;;;;;;;;;;;;;6.42;87.66;100497.90;116173;1291;22519;-68
2022/11/15 10:03:12;;;;;;;;;;;;;;;6.40;87.63;100493.60;116123;1285;25339;-69
2022/11/15 10:06:03;;;;;;;;;;;;;;;6.41;87.90;100488.41;116123;1287;22460;-70
2022/11/15 10:08:59;;;;;;;;;;;;;;;6.42;87.84;100483.17;116165;1287;25905;-70
2022/11/15 10:11:46;;;;;;;;;;;;;;;6.42;87.62;100479.54;116128;1306;24240;-68
2022/11/15 10:14:35;;;;;;;;;;;;;;;6.47;87.64;100478.05;116185;1306;22584;-70
2022/11/15 10:17:32;;;;;;;;;;;;;;;6.51;87.35;100470.17;116167;1287;22457;-71
2022/11/15 10:20:23;;;;;;;;;;;;;;;6.58;87.67;100469.69;116163;1287;25422;-69
2022/11/15 10:23:18;;;;;;;;;;;;;;;6.66;87.75;100470.56;116183;1295;22439;-69
2022/11/15 10:26:08;;;;;;;;;;;;;;;6.71;87.88;100466.83;116158;1284;25379;-69
2022/11/15 10:28:56;;;;;;;;;;;;;;;6.73;87.64;100467.12;116225;1299;24255;-69
2022/11/15 10:31:43;;;;;;;;;;;;;;;6.76;87.59;100468.28;116141;1306;24306;-69
2022/11/15 10:34:37;;;;;;;;;;;;;;;6.76;87.33;100469.32;116125;1292;22904;-70
2022/11/15 10:37:32;;;;;;;;;;;;;;;6.74;87.14;100465.70;116125;1296;25370;-70
2022/11/15 10:40:21;;;;;;;;;;;;;;;6.69;87.16;100458.52;116178;1291;22453;-69
2022/11/15 10:43:17;;;;;;;;;;;;;;;6.67;87.24;100455.80;116177;1302;22490;-69
2022/11/15 10:46:21;;;;;;;;;;;;;;;6.68;87.33;100452.66;116155;1306;22419;-69
2022/11/15 10:49:15;;;;;;;;;;;;;;;6.68;87.23;100457.33;116141;1304;22615;-71
2022/11/15 10:52:05;;;;;;;;;;;;;;;6.70;87.23;100459.03;116147;1294;22554;-68
2022/11/15 10:54:53;;;;;;;;;;;;;;;6.75;86.93;100453.73;116199;1306;22461;-70
2022/11/15 10:57:40;;;;;;;;;;;;;;;6.77;86.87;100451.44;116158;1306;24285;-70
2022/11/15 11:00:39;;;;;;;;;;;;;;;6.80;87.15;100448.94;116193;1306;22762;-70
2022/11/15 11:03:40;;;;;;;;;;;;;;;6.90;87.41;100446.82;116188;1306;25227;-70
2022/11/15 11:06:27;;;;;;;;;;;;;;;6.94;87.12;100443.08;116165;1293;22517;-68
2022/11/15 11:09:28;;;;;;;;;;;;;;;6.96;87.23;100442.36;116214;1290;22481;-70
2022/11/15 11:12:20;;;;;;;;;;;;;;;6.97;87.29;100444.23;116150;1306;24251;-70
2022/11/15 11:15:13;;;;;;;;;;;;;;;6.97;87.24;100445.63;116196;1284;22463;-68
2022/11/15 11:18:15;;;;;;;;;;;;;;;6.98;86.98;100445.78;116129;1300;23840;-69
2022/11/15 11:21:04;;;;;;;;;;;;;;;6.94;86.95;100439.61;116178;1287;22436;-70
2022/11/15 11:23:56;;;;;;;;;;;;;;;6.94;87.12;100440.48;116195;1300;22444;-69
2022/11/15 11:26:57;;;;;;;;;;;;;;;6.93;87.00;100432.71;116044;1306;22439;-68
2022/11/15 11:29:53;;;;;;;;;;;;;;;6.88;86.97;100419.63;116145;1298;23795;-68
2022/11/15 11:32:55;;;;;;;;;;;;;;;6.89;87.11;100418.39;116134;1290;22448;-69
2022/11/15 11:35:49;;;;;;;;;;;;;;;6.91;87.38;100419.92;116119;1290;25252;-70
2022/11/15 11:38:53;;;;;;;;;;;;;;;6.89;87.03;100418.39;116148;1306;22676;-70
2022/11/15 11:41:53;;;;;;;;;;;;;;;6.87;87.28;100408.39;116117;1306;24270;-71
2022/11/15 11:44:49;;;;;;;;;;;;;;;6.86;87.27;100408.25;116184;1306;22607;-69
2022/11/15 11:47:40;;;;;;;;;;;;;;;6.86;87.43;100400.45;116103;1306;22506;-68
2022/11/15 11:50:30;;;;;;;;;;;;;;;6.86;87.47;100398.52;116039;1280;22454;-70
2022/11/15 11:53:26;;;;;;;;;;;;;;;6.88;87.54;100395.02;116098;1309;22475;-69
2022/11/15 11:56:20;;;;;;;;;;;;;;;6.90;87.44;100392.55;116065;1291;22424;-70
2022/11/15 11:59:08;;;;;;;;;;;;;;;6.95;87.43;100391.20;116093;1309;22505;-70
2022/11/15 12:01:56;;;;;;;;;;;;;;;7.00;87.37;100385.91;115988;1300;22477;-70
2022/11/15 12:04:44;;;;;;;;;;;;;;;7.08;87.53;100378.41;116060;1304;22441;-70
2022/11/15 12:07:33;;;;;;;;;;;;;;;7.17;87.47;100371.80;115691;1306;473540;-68
2022/11/15 12:10:23;;;;;;;;;;;;;;;7.20;86.99;100373.45;116017;1287;25227;-69
2022/11/15 12:13:14;;;;;;;;;;;;;;;7.17;87.06;100373.85;116029;1304;22500;-70
2022/11/15 12:16:04;;;;;;;;;;;;;;;7.19;86.82;100378.67;116020;1291;22420;-70
2022/11/15 12:18:52;;;;;;;;;;;;;;;7.17;86.96;100371.79;116090;1309;22535;-70
2022/11/15 12:21:47;;;;;;;;;;;;;;;7.18;87.15;100370.70;116030;1308;22446;-71
2022/11/15 12:24:36;;;;;;;;;;;;;;;7.19;87.24;100364.98;116071;1309;22477;-70
2022/11/15 12:27:28;;;;;;;;;;;;;;;7.17;87.02;100361.71;116046;1302;22456;-70
2022/11/15 12:30:16;;;;;;;;;;;;;;;7.15;86.99;100356.41;116049;1309;22473;-70
2022/11/15 12:33:04;;;;;;;;;;;;;;;7.15;87.21;100352.08;116013;1309;22553;-70
2022/11/15 12:36:00;;;;;;;;;;;;;;;7.14;87.16;100347.74;116022;1284;22435;-70
2022/11/15 12:39:08;;;;;;;;;;;;;;;7.12;87.02;100344.16;116126;1307;24395;-69
2022/11/15 12:42:26;;;;;;;;;;;;;;;7.07;86.77;100340.11;116026;1296;22404;-69
2022/11/15 12:49:01;;;;;;;;;;;;;;;6.99;86.97;100353.48;112688;1345;544138;-70
2022/11/15 12:52:08;;;;;;;;;;;;;;;6.92;86.98;100350.17;115612;1297;22590;-70
2022/11/15 12:55:19;;;;;;;;;;;;;;;6.91;87.04;100347.61;115670;1298;22701;-70
2022/11/15 12:58:30;;;;;;;;;;;;;;;6.95;87.08;100343.70;115629;1297;22460;-68
2022/11/15 13:02:01;;;;;;;;;;;;;;;6.99;86.96;100341.86;115347;1297;439989;-70
2022/11/15 13:04:55;;;;;;;;;;;;;;;7.08;87.28;100343.05;115088;1310;22450;-68
2022/11/15 13:08:00;;;;;;;;;;;;;;;7.16;87.39;100341.80;115695;1311;24267;-67
2022/11/15 13:10:50;;;;;;;;;;;;;;;7.19;86.97;100339.83;115764;1313;22456;-69
2022/11/15 13:13:54;;;;;;;;;;;;;;;7.17;86.91;100336.56;115780;1313;22413;-69
2022/11/15 13:16:43;;;;;;;;;;;;;;;7.17;86.73;100332.60;115769;1294;22525;-68
2022/11/15 13:19:33;;;;;;;;;;;;;;;7.12;86.60;100333.40;115794;1297;22449;-68
2022/11/15 13:25:57;;;;;;;;;;;;;;;7.07;86.88;100327.29;115811;1294;22435;-69
2022/11/15 13:28:49;;;;;;;;;;;;;;;7.01;86.54;100318.58;115792;1307;22472;-70
2022/11/15 13:31:41;;;;;;;;;;;;;;;6.95;86.60;100317.70;115785;1313;22448;-68
2022/11/15 13:34:41;;;;;;;;;;;;;;;6.88;86.60;100310.75;115797;1297;22559;-70
2022/11/15 13:37:33;;;;;;;;;;;;;;;6.79;86.66;100313.74;115779;1313;22470;-69
2022/11/15 13:40:30;;;;;;;;;;;;;;;6.75;86.77;100309.66;115800;1281;25250;-67
2022/11/15 13:43:36;;;;;;;;;;;;;;;6.73;86.87;100309.52;115774;1305;22451;-69
2022/11/15 13:46:24;;;;;;;;;;;;;;;6.77;86.92;100310.31;115779;1295;22793;-68
2022/11/15 13:49:12;;;;;;;;;;;;;;;6.80;87.17;100310.41;115792;1297;22462;-69
2022/11/15 13:52:03;;;;;;;;;;;;;;;6.83;87.17;100310.52;116553;1288;24261;-69
2022/11/15 13:54:55;;;;;;;;;;;;;;;6.83;87.40;100315.70;116625;1288;22440;-69
2022/11/15 13:57:44;;;;;;;;;;;;;;;6.81;87.17;100308.66;116556;1285;25354;-69
2022/11/15 14:00:37;;;;;;;;;;;;;;;6.77;87.06;100305.46;116623;1282;22430;-69
2022/11/15 14:03:25;;;;;;;;;;;;;;;6.70;86.93;100305.26;116685;1294;22474;-69
2022/11/15 14:06:15;;;;;;;;;;;;;;;6.62;86.97;100303.55;116593;1284;22456;-68
2022/11/15 14:09:16;;;;;;;;;;;;;;;6.57;87.11;100299.67;116587;1307;22436;-68
2022/11/15 14:12:29;;;;;;;;;;;;;;;6.49;87.02;100295.35;116578;1305;22382;-70
2022/11/15 14:15:28;;;;;;;;;;;;;;;6.43;87.16;100293.94;116561;1278;22469;-68
2022/11/15 14:18:42;;;;;;;;;;;;;;;6.43;87.56;100294.43;116379;1294;22526;-69
2022/11/15 14:21:30;;;;;;;;;;;;;;;6.37;87.28;100288.15;116387;1299;22436;-69
2022/11/15 14:24:22;;;;;;;;;;;;;;;6.34;87.55;100291.86;116365;1288;22438;-69
2022/11/15 14:27:26;;;;;;;;;;;;;;;6.34;87.47;100294.46;116322;1309;22410;-70
2022/11/15 14:30:18;;;;;;;;;;;;;;;6.34;87.45;100298.11;116346;1303;22450;-68
2022/11/15 14:33:21;;;;;;;;;;;;;;;6.34;87.36;100292.73;116323;1303;22437;-68
2022/11/15 14:36:12;;;;;;;;;;;;;;;6.36;87.65;100292.70;116322;1304;22695;-68
2022/11/15 14:38:59;;;;;;;;;;;;;;;6.39;87.87;100287.26;116345;1307;22409;-68
2022/11/15 14:41:50;;;;;;;;;;;;;;;6.40;87.92;100287.59;116337;1304;22466;-70
2022/11/15 14:44:42;;;;;;;;;;;;;;;6.41;87.91;100292.59;116314;1288;24252;-69
2022/11/15 14:47:32;;;;;;;;;;;;;;;6.39;87.79;100289.34;116310;1286;22514;-68
2022/11/15 14:50:22;;;;;;;;;;;;;;;6.33;87.61;100288.43;116344;1281;22567;-68
2022/11/15 14:53:14;;;;;;;;;;;;;;;6.29;87.79;100288.87;116359;1284;22427;-69
2022/11/15 14:56:07;;;;;;;;;;;;;;;6.27;87.84;100290.80;116324;1305;22424;-68
2022/11/15 14:58:55;;;;;;;;;;;;;;;6.20;87.60;100289.23;116367;1304;22473;-70
2022/11/15 15:01:45;;;;;;;;;;;;;;;6.11;87.67;100288.20;116349;1290;25189;-69
2022/11/15 15:04:32;;;;;;;;;;;;;;;6.05;87.86;100287.80;116353;1303;22435;-68